createdAt,value
2022-12-26T00:00:31.171Z,98971.00
2022-12-26T00:04:51.045Z,98965.31
2022-12-26T00:08:54.801Z,98994.91
2022-12-26T00:13:38.500Z,98977.63
2022-12-26T00:17:18.922Z,98970.63
2022-12-26T00:21:20.925Z,98997.16
2022-12-26T00:25:22.335Z,99000.72
2022-12-26T00:29:25.055Z,98999.41
2022-12-26T00:33:26.492Z,98992.72
2022-12-26T00:37:27.903Z,98980.44
2022-12-26T00:41:29.958Z,98988.06
2022-12-26T00:45:32.690Z,98984.25
2022-12-26T00:50:11.242Z,98972.44
2022-12-26T00:53:55.531Z,98969.97
2022-12-26T00:57:56.932Z,98963.59
2022-12-26T01:01:59.863Z,98950.66
2022-12-26T01:06:02.850Z,98958.88
2022-12-26T01:10:05.525Z,98969.56
2022-12-26T01:14:09.174Z,98974.00
2022-12-26T01:18:11.901Z,98983.81
2022-12-26T01:22:13.333Z,98980.66
2022-12-26T01:26:19.933Z,98972.88
2022-12-26T01:30:21.841Z,98977.72
2022-12-26T01:34:24.650Z,98970.66
2022-12-26T01:38:26.349Z,98966.41
2022-12-26T01:42:37.402Z,98968.88
2022-12-26T01:46:40.558Z,98975.56
2022-12-26T01:50:47.683Z,98973.13
2022-12-26T01:54:52.433Z,98973.31
2022-12-26T01:58:58.199Z,98984.13
2022-12-26T02:02:59.651Z,98988.66
2022-12-26T02:07:04.687Z,98995.31
2022-12-26T02:11:12.504Z,98984.25
2022-12-26T02:15:17.214Z,98970.16
2022-12-26T02:19:29.061Z,98965.13
2022-12-26T02:24:01.240Z,98951.56
2022-12-26T02:28:27.244Z,98946.00
2022-12-26T02:32:45.872Z,98952.44
2022-12-26T02:36:59.354Z,98949.72
2022-12-26T02:41:08.335Z,98949.63
2022-12-26T02:45:18.823Z,98970.50
2022-12-26T02:49:32.007Z,98955.50
2022-12-26T02:53:48.115Z,98966.44
2022-12-26T02:57:56.000Z,98960.38
2022-12-26T03:02:01.858Z,98952.81
2022-12-26T03:06:09.070Z,98943.44
2022-12-26T03:10:18.801Z,98938.59
2022-12-26T03:14:25.234Z,98946.78
2022-12-26T03:18:58.212Z,98948.69
2022-12-26T03:22:54.874Z,98939.94
2022-12-26T03:26:56.182Z,98932.41
2022-12-26T03:31:01.529Z,98929.81
2022-12-26T03:35:12.925Z,98931.97
2022-12-26T03:39:28.128Z,98935.88
2022-12-26T03:43:42.787Z,98950.25
2022-12-26T03:47:51.687Z,98950.31
2022-12-26T03:51:59.660Z,98952.34
2022-12-26T03:56:08.387Z,98955.91
2022-12-26T04:00:12.825Z,98949.44
2022-12-26T04:04:16.402Z,98957.00
2022-12-26T04:08:22.937Z,98947.91
2022-12-26T04:12:29.939Z,98940.56
2022-12-26T04:16:35.565Z,98955.31
2022-12-26T04:20:38.276Z,98958.66
2022-12-26T04:24:44.985Z,98977.94
2022-12-26T04:28:47.797Z,98981.03
2022-12-26T04:32:50.170Z,98987.19
2022-12-26T04:36:56.474Z,98976.00
2022-12-26T04:41:01.921Z,98969.59
2022-12-26T04:45:07.151Z,98973.72
2022-12-26T04:49:10.536Z,98978.69
2022-12-26T04:53:14.479Z,98982.59
2022-12-26T04:57:15.893Z,98980.38
2022-12-26T05:01:18.846Z,98983.13
2022-12-26T05:05:20.375Z,98991.31
2022-12-26T05:09:21.779Z,98990.25
2022-12-26T05:13:23.184Z,98971.31
2022-12-26T05:17:26.280Z,98970.88
2022-12-26T05:21:27.813Z,98974.53
2022-12-26T05:25:32.214Z,98980.94
2022-12-26T05:29:33.652Z,98966.13
2022-12-26T05:33:36.386Z,98963.34
2022-12-26T05:37:37.790Z,98972.06
2022-12-26T05:41:39.460Z,98985.56
2022-12-26T05:45:40.872Z,98997.41
2022-12-26T05:49:43.655Z,98986.88
2022-12-26T05:53:45.089Z,98975.31
2022-12-26T05:57:46.484Z,98985.72
2022-12-26T06:01:47.971Z,98985.81
2022-12-26T06:05:50.761Z,98986.41
2022-12-26T06:09:52.196Z,98973.50
2022-12-26T06:13:54.161Z,98981.44
2022-12-26T06:17:55.718Z,98977.88
2022-12-26T06:21:58.456Z,98972.66
2022-12-26T06:25:59.883Z,98968.31
2022-12-26T06:30:01.356Z,98963.28
2022-12-26T06:34:02.772Z,98960.84
2022-12-26T06:38:05.504Z,98972.84
2022-12-26T06:42:07.149Z,98978.56
2022-12-26T06:46:13.608Z,98984.09
2022-12-26T06:50:15.259Z,98989.63
2022-12-26T06:54:18.021Z,99004.38
2022-12-26T06:58:19.417Z,99001.13
2022-12-26T07:02:20.920Z,99022.47
2022-12-26T07:06:24.600Z,99020.16
2022-12-26T07:10:27.359Z,99030.63
2022-12-26T07:14:28.780Z,99030.69
2022-12-26T07:18:30.184Z,99025.59
2022-12-26T07:22:31.671Z,99040.38
2022-12-26T07:26:34.457Z,99037.03
2022-12-26T07:30:35.879Z,99035.88
2022-12-26T07:34:37.281Z,99029.41
2022-12-26T07:38:38.695Z,99051.19
2022-12-26T07:42:41.409Z,99039.75
2022-12-26T07:46:43.148Z,99039.53
2022-12-26T07:50:44.592Z,99055.66
2022-12-26T07:54:45.985Z,99059.06
2022-12-26T07:58:49.839Z,99056.19
2022-12-26T08:02:51.865Z,99058.88
2022-12-26T08:06:53.348Z,99066.00
2022-12-26T08:10:59.173Z,99045.56
2022-12-26T08:15:01.926Z,99053.13
2022-12-26T08:19:03.498Z,99068.03
2022-12-26T08:23:04.880Z,99072.22
2022-12-26T08:27:06.297Z,99081.91
2022-12-26T08:31:10.727Z,99076.13
2022-12-26T08:35:12.153Z,99063.28
2022-12-26T08:39:13.559Z,99072.09
2022-12-26T08:43:34.804Z,99051.84
2022-12-26T08:47:37.671Z,99057.94
2022-12-26T08:51:39.356Z,99069.72
2022-12-26T08:55:40.748Z,99066.75
2022-12-26T08:59:42.755Z,99068.44
2022-12-26T09:03:46.177Z,99072.28
2022-12-26T09:07:47.568Z,99056.44
2022-12-26T09:11:49.003Z,99061.41
2022-12-26T09:15:50.406Z,99075.69
2022-12-26T09:19:53.281Z,99077.41
2022-12-26T09:23:57.179Z,99073.03
2022-12-26T09:27:59.479Z,99089.47
2022-12-26T09:32:01.028Z,99080.72
2022-12-26T09:36:12.503Z,99071.38
2022-12-26T09:40:23.012Z,99073.84
2022-12-26T09:44:30.733Z,99070.28
2022-12-26T09:48:39.456Z,99087.88
2022-12-26T09:52:48.554Z,99093.06
2022-12-26T09:57:02.223Z,99088.91
2022-12-26T10:01:09.942Z,99084.47
2022-12-26T10:05:13.620Z,99052.63
2022-12-26T10:09:44.258Z,99067.84
2022-12-26T10:13:50.167Z,99060.63
2022-12-26T10:17:58.819Z,99064.91
2022-12-26T10:22:16.249Z,99072.19
2022-12-26T10:26:22.094Z,99083.25
2022-12-26T10:30:25.619Z,99080.09
2022-12-26T10:34:31.293Z,99072.97
2022-12-26T10:38:37.238Z,99055.75
2022-12-26T10:42:42.083Z,99047.94
2022-12-26T10:46:59.100Z,99052.94
2022-12-26T10:51:00.533Z,99051.91
2022-12-26T10:55:27.996Z,99056.91
2022-12-26T10:59:39.963Z,99061.84
2022-12-26T11:03:54.395Z,99055.31
2022-12-26T11:08:06.926Z,99063.03
2022-12-26T11:12:20.218Z,99048.81
2022-12-26T11:16:28.893Z,99038.13
2022-12-26T11:20:30.999Z,99054.34
2022-12-26T11:24:32.423Z,99074.06
2022-12-26T11:28:35.331Z,99051.94
2022-12-26T11:32:38.131Z,99051.47
2022-12-26T11:36:46.200Z,99058.25
2022-12-26T11:40:48.855Z,99055.50
2022-12-26T11:44:52.323Z,99045.72
2022-12-26T11:48:55.077Z,99034.78
2022-12-26T11:53:05.643Z,99025.56
2022-12-26T11:57:16.548Z,99037.63
2022-12-26T12:01:19.291Z,99036.59
2022-12-26T12:05:34.885Z,99044.91
2022-12-26T12:09:43.674Z,99038.25
2022-12-26T12:13:54.411Z,99031.06
2022-12-26T12:18:05.412Z,99029.94
2022-12-26T12:22:25.658Z,99026.66
2022-12-26T12:26:34.233Z,99029.34
2022-12-26T12:30:42.751Z,99018.72
2022-12-26T12:35:00.120Z,99030.94
2022-12-26T12:39:10.899Z,99016.41
2022-12-26T12:43:19.211Z,99020.84
2022-12-26T12:47:34.195Z,99021.63
2022-12-26T12:51:43.840Z,99022.09
2022-12-26T12:55:59.227Z,99071.69
2022-12-26T13:00:10.985Z,99110.41
2022-12-26T13:04:14.271Z,99131.81
2022-12-26T13:08:26.156Z,99144.34
2022-12-26T13:12:30.674Z,99152.22
2022-12-26T13:16:38.629Z,99153.53
2022-12-26T13:20:43.293Z,99145.09
2022-12-26T13:24:48.086Z,99139.78
2022-12-26T13:28:59.054Z,99138.47
2022-12-26T13:33:00.503Z,99144.41
2022-12-26T13:37:01.940Z,99136.81
2022-12-26T13:41:04.214Z,99137.38
2022-12-26T13:45:46.236Z,99129.56
2022-12-26T13:49:47.706Z,99125.88
2022-12-26T13:54:02.553Z,99121.38
2022-12-26T13:58:22.523Z,99114.28
2022-12-26T14:03:20.437Z,99123.41
2022-12-26T14:07:30.625Z,99120.09
2022-12-26T14:11:46.265Z,99121.19
2022-12-26T14:15:52.936Z,99115.53
2022-12-26T14:20:03.195Z,99114.19
2022-12-26T14:24:19.301Z,99108.50
2022-12-26T14:28:26.955Z,99103.63
2022-12-26T14:32:36.907Z,99094.16
2022-12-26T14:36:47.159Z,99115.03
2022-12-26T14:41:02.816Z,99113.88
2022-12-26T14:45:13.913Z,99114.78
2022-12-26T14:49:22.081Z,99116.44
2022-12-26T14:53:33.757Z,99120.34
2022-12-26T14:57:50.400Z,99120.34
2022-12-26T15:02:01.975Z,99125.19
2022-12-26T15:06:34.459Z,99130.06
2022-12-26T15:11:14.825Z,99134.38
2022-12-26T15:15:37.906Z,99133.78
2022-12-26T15:20:02.606Z,99133.19
2022-12-26T15:24:26.984Z,99135.91
2022-12-26T15:29:09.249Z,99137.78
2022-12-26T15:33:18.653Z,99142.78
2022-12-26T15:37:32.206Z,99154.66
2022-12-26T15:41:39.758Z,99165.34
2022-12-26T15:45:48.536Z,99163.66
2022-12-26T15:50:03.510Z,99155.59
2022-12-26T15:54:22.153Z,99150.38
2022-12-26T15:58:41.028Z,99149.66
2022-12-26T16:02:48.720Z,99147.28
2022-12-26T16:07:06.573Z,99151.69
2022-12-26T16:11:13.141Z,99142.81
2022-12-26T16:15:17.080Z,99149.06
2022-12-26T16:19:21.777Z,99151.34
2022-12-26T16:23:27.338Z,99155.09
2022-12-26T16:27:29.998Z,99156.53
2022-12-26T16:31:31.572Z,99164.81
2022-12-26T16:35:37.981Z,99148.94
2022-12-26T16:39:39.382Z,99151.72
2022-12-26T16:43:40.809Z,99159.06
2022-12-26T16:47:43.180Z,99153.19
2022-12-26T16:51:47.667Z,99154.63
2022-12-26T16:55:51.854Z,99164.31
2022-12-26T16:59:56.470Z,99164.59
2022-12-26T17:04:01.350Z,99166.72
2022-12-26T17:08:05.638Z,99166.97
2022-12-26T17:12:17.635Z,99162.25
2022-12-26T17:16:23.441Z,99153.09
2022-12-26T17:20:35.796Z,99148.00
2022-12-26T17:24:38.533Z,99148.81
2022-12-26T17:28:39.919Z,99146.22
2022-12-26T17:32:44.707Z,99152.63
2022-12-26T17:37:17.870Z,99147.50
2022-12-26T17:41:09.253Z,99143.09
2022-12-26T17:45:16.113Z,99139.97
2022-12-26T17:49:17.515Z,99142.00
2022-12-26T17:53:27.245Z,99155.50
2022-12-26T17:57:30.291Z,99148.94
2022-12-26T18:01:31.811Z,99160.19
2022-12-26T18:05:34.295Z,99163.16
2022-12-26T18:09:35.804Z,99160.41
2022-12-26T18:13:38.862Z,99155.41
2022-12-26T18:17:40.317Z,99156.09
2022-12-26T18:21:42.175Z,99153.94
2022-12-26T18:25:43.651Z,99136.41
2022-12-26T18:29:46.485Z,99124.78
2022-12-26T18:33:47.872Z,99130.25
2022-12-26T18:37:51.649Z,99137.88
2022-12-26T18:41:53.060Z,99133.38
2022-12-26T18:45:55.945Z,99136.03
2022-12-26T18:49:57.398Z,99118.97
2022-12-26T18:53:58.837Z,99104.09
2022-12-26T18:58:00.315Z,99109.56
2022-12-26T19:02:03.079Z,99122.50
2022-12-26T19:06:04.851Z,99100.78
2022-12-26T19:10:09.571Z,99099.94
2022-12-26T19:14:18.565Z,99105.41
2022-12-26T19:18:21.278Z,99114.53
2022-12-26T19:22:22.713Z,99131.41
2022-12-26T19:26:24.476Z,99133.44
2022-12-26T19:30:25.885Z,99122.50
2022-12-26T19:34:28.674Z,99132.25
2022-12-26T19:38:30.116Z,99133.91
2022-12-26T19:42:31.530Z,99128.56
2022-12-26T19:46:32.961Z,99128.66
2022-12-26T19:50:36.068Z,99134.25
2022-12-26T19:54:37.553Z,99144.59
2022-12-26T19:58:39.077Z,99164.53
2022-12-26T20:02:41.469Z,99201.81
2022-12-26T20:06:44.340Z,99258.84
2022-12-26T20:10:45.730Z,99279.22
2022-12-26T20:14:47.302Z,99279.41
2022-12-26T20:18:49.304Z,99298.72
2022-12-26T20:22:53.390Z,99319.44
2022-12-26T20:26:54.927Z,99325.16
2022-12-26T20:30:58.031Z,99327.19
2022-12-26T20:34:59.454Z,99345.78
2022-12-26T20:39:04.937Z,99324.72
2022-12-26T20:43:06.346Z,99313.00
2022-12-26T20:47:07.810Z,99255.53
2022-12-26T20:51:12.510Z,99243.22
2022-12-26T20:55:15.337Z,99253.56
2022-12-26T20:59:16.922Z,99287.88
2022-12-26T21:03:18.403Z,99249.38
2022-12-26T21:07:19.888Z,99274.09
2022-12-26T21:11:24.745Z,99292.53
2022-12-26T21:15:26.193Z,99314.56
2022-12-26T21:19:28.673Z,99349.72
2022-12-26T21:23:30.069Z,99339.56
2022-12-26T21:27:32.812Z,99340.84
2022-12-26T21:31:35.234Z,99339.22
2022-12-26T21:35:36.722Z,99356.38
2022-12-26T21:39:38.447Z,99367.31
2022-12-26T21:43:41.152Z,99371.34
2022-12-26T21:47:42.554Z,99390.00
2022-12-26T21:51:44.223Z,99407.16
2022-12-26T21:55:45.626Z,99423.53
2022-12-26T21:59:48.640Z,99424.34
2022-12-26T22:03:50.745Z,99443.59
2022-12-26T22:07:53.228Z,99449.88
2022-12-26T22:11:54.628Z,99463.19
2022-12-26T22:15:58.025Z,99483.59
2022-12-26T22:19:59.439Z,99484.56
2022-12-26T22:24:01.097Z,99493.06
2022-12-26T22:28:02.479Z,99498.06
2022-12-26T22:32:05.360Z,99503.88
2022-12-26T22:36:08.586Z,99506.28
2022-12-26T22:40:11.616Z,99508.75
2022-12-26T22:44:13.091Z,99527.53
2022-12-26T22:48:15.969Z,99537.78
2022-12-26T22:52:17.396Z,99539.66
2022-12-26T22:56:18.881Z,99550.91
2022-12-26T23:00:20.277Z,99552.56
2022-12-26T23:04:23.516Z,99554.03
2022-12-26T23:08:27.571Z,99580.88
2022-12-26T23:12:29.413Z,99585.03
2022-12-26T23:16:35.674Z,99585.44
2022-12-26T23:20:39.093Z,99595.38
2022-12-26T23:24:40.549Z,99593.88
2022-12-26T23:28:41.963Z,99596.53
2022-12-26T23:32:45.105Z,99594.22
2022-12-26T23:36:47.839Z,99597.97
2022-12-26T23:40:49.233Z,99612.78
2022-12-26T23:44:50.642Z,99612.78
2022-12-26T23:48:52.043Z,99612.78
2022-12-26T23:52:54.757Z,99626.09
2022-12-26T23:56:56.377Z,99622.34
